createdAt,value
2023-09-05T00:01:01.308Z,73.86
2023-09-05T00:01:58.372Z,73.80
2023-09-05T00:02:55.866Z,74.02
2023-09-05T00:03:56.059Z,74.22
2023-09-05T00:04:55.201Z,74.29
2023-09-05T00:05:55.383Z,74.27
2023-09-05T00:06:54.497Z,74.26
2023-09-05T00:07:54.225Z,74.19
2023-09-05T00:08:54.098Z,74.30
2023-09-05T00:09:54.440Z,74.48
2023-09-05T00:10:58.656Z,74.92
2023-09-05T00:11:54.547Z,75.06
2023-09-05T00:12:54.711Z,74.99
2023-09-05T00:13:54.694Z,75.14
2023-09-05T00:14:55.859Z,75.16
2023-09-05T00:15:58.188Z,75.26
2023-09-05T00:16:56.852Z,75.16
2023-09-05T00:17:56.745Z,74.97
2023-09-05T00:18:56.777Z,74.90
2023-09-05T00:19:56.900Z,74.88
2023-09-05T00:21:02.746Z,74.75
2023-09-05T00:21:56.878Z,74.80
2023-09-05T00:22:57.796Z,74.76
2023-09-05T00:23:57.097Z,74.52
2023-09-05T00:24:57.426Z,74.20
2023-09-05T00:25:57.443Z,74.28
2023-09-05T00:26:57.491Z,74.25
2023-09-05T00:27:55.981Z,74.12
2023-09-05T00:28:57.548Z,73.99
2023-09-05T00:29:56.773Z,73.96
2023-09-05T00:31:00.394Z,74.13
2023-09-05T00:31:56.741Z,74.10
2023-09-05T00:32:56.378Z,74.00
2023-09-05T00:33:54.329Z,74.01
2023-09-05T00:34:54.886Z,74.16
2023-09-05T00:35:55.721Z,74.33
2023-09-05T00:36:54.857Z,74.30
2023-09-05T00:37:54.697Z,73.97
2023-09-05T00:38:55.064Z,73.90
2023-09-05T00:39:54.351Z,74.21
2023-09-05T00:40:59.156Z,74.17
2023-09-05T00:41:54.574Z,74.17
2023-09-05T00:42:54.927Z,73.92
2023-09-05T00:43:55.233Z,74.16
2023-09-05T00:44:54.103Z,74.46
2023-09-05T00:45:57.539Z,74.72
2023-09-05T00:46:56.393Z,74.96
2023-09-05T00:47:55.210Z,74.87
2023-09-05T00:48:54.905Z,74.87
2023-09-05T00:49:54.254Z,75.01
2023-09-05T00:50:56.004Z,75.19
2023-09-05T00:51:54.365Z,75.25
2023-09-05T00:52:54.677Z,75.11
2023-09-05T00:53:54.326Z,75.43
2023-09-05T00:54:54.158Z,75.40
2023-09-05T00:55:55.697Z,75.59
2023-09-05T00:56:55.288Z,75.68
2023-09-05T00:57:54.258Z,75.78
2023-09-05T00:58:53.763Z,75.85
2023-09-05T00:59:55.294Z,75.93
2023-09-05T01:00:57.547Z,75.83
2023-09-05T01:01:55.273Z,75.94
2023-09-05T01:02:54.418Z,75.97
2023-09-05T01:03:54.205Z,76.14
2023-09-05T01:04:54.201Z,76.11
2023-09-05T01:05:55.058Z,76.15
2023-09-05T01:06:54.325Z,76.29
2023-09-05T01:07:54.717Z,76.15
2023-09-05T01:08:55.008Z,76.10
2023-09-05T01:09:54.223Z,76.32
2023-09-05T01:10:59.119Z,76.31
2023-09-05T01:11:55.315Z,76.35
2023-09-05T01:12:55.060Z,76.38
2023-09-05T01:13:55.233Z,76.32
2023-09-05T01:14:56.919Z,76.46
2023-09-05T01:15:55.898Z,76.45
2023-09-05T01:16:54.638Z,76.42
2023-09-05T01:17:55.249Z,76.43
2023-09-05T01:18:54.375Z,76.53
2023-09-05T01:19:54.475Z,76.76
2023-09-05T01:20:56.531Z,76.77
2023-09-05T01:21:54.716Z,76.76
2023-09-05T01:22:54.657Z,76.74
2023-09-05T01:23:54.530Z,76.73
2023-09-05T01:24:54.726Z,76.64
2023-09-05T01:25:55.062Z,76.71
2023-09-05T01:26:54.867Z,76.77
2023-09-05T01:27:54.865Z,76.72
2023-09-05T01:28:54.667Z,76.69
2023-09-05T01:29:55.264Z,76.64
2023-09-05T01:30:56.378Z,76.68
2023-09-05T01:31:54.780Z,76.61
2023-09-05T01:32:55.946Z,76.63
2023-09-05T01:33:54.255Z,76.63
2023-09-05T01:34:54.058Z,76.65
2023-09-05T01:35:54.841Z,76.75
2023-09-05T01:36:55.144Z,76.61
2023-09-05T01:37:53.865Z,76.53
2023-09-05T01:38:54.586Z,76.50
2023-09-05T01:39:54.507Z,76.46
2023-09-05T01:40:57.064Z,76.53
2023-09-05T01:41:54.396Z,76.48
2023-09-05T01:42:54.301Z,76.59
2023-09-05T01:43:54.250Z,76.58
2023-09-05T01:44:54.243Z,76.52
2023-09-05T01:45:55.272Z,76.43
2023-09-05T01:46:54.141Z,76.46
2023-09-05T01:47:54.359Z,76.49
2023-09-05T01:48:54.334Z,76.50
2023-09-05T01:49:54.558Z,76.68
2023-09-05T01:50:56.601Z,76.68
2023-09-05T01:51:54.995Z,76.80
2023-09-05T01:52:54.424Z,76.72
2023-09-05T01:53:54.508Z,76.70
2023-09-05T01:54:54.809Z,76.69
2023-09-05T01:55:56.057Z,76.71
2023-09-05T01:56:54.929Z,76.85
2023-09-05T01:57:55.148Z,76.90
2023-09-05T01:58:54.547Z,76.86
2023-09-05T01:59:54.814Z,76.87
2023-09-05T02:00:57.919Z,76.82
2023-09-05T02:01:55.210Z,76.79
2023-09-05T02:02:54.855Z,76.78
2023-09-05T02:03:55.030Z,76.89
2023-09-05T02:04:54.342Z,77.10
2023-09-05T02:05:55.339Z,77.16
2023-09-05T02:06:54.155Z,77.08
2023-09-05T02:07:53.662Z,77.13
2023-09-05T02:08:56.195Z,77.21
2023-09-05T02:09:55.218Z,77.32
2023-09-05T02:11:02.413Z,77.28
2023-09-05T02:11:55.547Z,77.34
2023-09-05T02:12:55.382Z,77.46
2023-09-05T02:13:54.193Z,77.41
2023-09-05T02:14:56.186Z,77.43
2023-09-05T02:15:56.190Z,77.5
2023-09-05T02:16:54.129Z,77.48
2023-09-05T02:17:54.455Z,77.52
2023-09-05T02:18:54.687Z,77.59
2023-09-05T02:19:54.574Z,77.67
2023-09-05T02:20:57.207Z,77.75
2023-09-05T02:21:53.972Z,77.86
2023-09-05T02:22:54.604Z,77.82
2023-09-05T02:23:54.330Z,77.81
2023-09-05T02:24:53.690Z,78.01
2023-09-05T02:25:55.170Z,78.23
2023-09-05T02:26:54.326Z,78.20
2023-09-05T02:27:54.280Z,78.12
2023-09-05T02:28:54.235Z,78.11
2023-09-05T02:29:54.800Z,78.16
2023-09-05T02:30:55.625Z,78.15
2023-09-05T02:31:54.291Z,78.12
2023-09-05T02:32:54.881Z,78.13
2023-09-05T02:33:54.414Z,78.12
2023-09-05T02:34:54.580Z,78.23
2023-09-05T02:35:55.537Z,78.30
2023-09-05T02:36:54.335Z,78.37
2023-09-05T02:37:53.932Z,78.43
2023-09-05T02:38:54.439Z,78.41
2023-09-05T02:39:53.976Z,78.39
2023-09-05T02:40:56.404Z,78.51
2023-09-05T02:41:54.644Z,78.63
2023-09-05T02:42:54.210Z,78.69
2023-09-05T02:43:54.942Z,78.68
2023-09-05T02:44:54.666Z,78.59
2023-09-05T02:45:55.462Z,78.52
2023-09-05T02:46:54.935Z,78.50
2023-09-05T02:47:54.410Z,78.48
2023-09-05T02:48:54.268Z,78.54
2023-09-05T02:49:53.706Z,78.54
2023-09-05T02:50:55.954Z,78.51
2023-09-05T02:51:54.886Z,78.51
2023-09-05T02:53:12.973Z,78.45
2023-09-05T02:53:59.770Z,78.43
2023-09-05T02:54:54.383Z,78.36
2023-09-05T02:55:54.376Z,78.45
2023-09-05T02:56:54.679Z,78.45
2023-09-05T02:57:54.543Z,78.55
2023-09-05T02:58:54.707Z,78.52
2023-09-05T02:59:55.035Z,78.48
2023-09-05T03:00:55.769Z,78.52
2023-09-05T03:01:55.137Z,78.61
2023-09-05T03:02:54.813Z,78.68
2023-09-05T03:03:55.017Z,78.83
2023-09-05T03:04:54.546Z,78.79
2023-09-05T03:05:55.482Z,78.89
2023-09-05T03:06:54.554Z,78.82
2023-09-05T03:07:54.340Z,78.87
2023-09-05T03:08:54.305Z,78.98
2023-09-05T03:09:55.235Z,78.84
2023-09-05T03:10:58.564Z,78.94
2023-09-05T03:11:55.243Z,78.99
2023-09-05T03:12:54.689Z,78.95
2023-09-05T03:13:54.625Z,78.93
2023-09-05T03:14:55.647Z,78.91
2023-09-05T03:15:55.255Z,78.99
2023-09-05T03:16:54.431Z,78.99
2023-09-05T03:17:54.345Z,79.04
2023-09-05T03:18:55.022Z,79.08
2023-09-05T03:19:53.614Z,79.12
2023-09-05T03:20:56.618Z,79.06
2023-09-05T03:21:54.352Z,79.06
2023-09-05T03:22:54.680Z,79.10
2023-09-05T03:23:55.064Z,79.09
2023-09-05T03:24:54.153Z,79.10
2023-09-05T03:25:54.639Z,79.08
2023-09-05T03:26:55.299Z,79.16
2023-09-05T03:27:53.989Z,79.16
2023-09-05T03:28:53.965Z,79.27
2023-09-05T03:29:54.067Z,79.30
2023-09-05T03:30:57.668Z,79.44
2023-09-05T03:31:55.100Z,79.44
2023-09-05T03:32:54.775Z,79.51
2023-09-05T03:33:55.117Z,79.60
2023-09-05T03:34:54.364Z,79.60
2023-09-05T03:35:55.241Z,79.60
2023-09-05T03:36:55.319Z,79.71
2023-09-05T03:37:54.476Z,79.67
2023-09-05T03:38:54.581Z,79.65
2023-09-05T03:39:54.400Z,79.69
2023-09-05T03:40:56.646Z,79.73
2023-09-05T03:41:54.855Z,79.65
2023-09-05T03:42:55.243Z,79.74
2023-09-05T03:43:54.001Z,79.68
2023-09-05T03:44:54.353Z,79.81
2023-09-05T03:45:55.703Z,79.83
2023-09-05T03:46:55.040Z,79.73
2023-09-05T03:48:00.136Z,79.76
2023-09-05T03:48:54.600Z,79.68
2023-09-05T03:49:55.185Z,79.73
2023-09-05T03:50:55.872Z,79.80
2023-09-05T03:51:55.262Z,79.80
2023-09-05T03:52:54.806Z,79.79
2023-09-05T03:53:54.274Z,79.75
2023-09-05T03:54:54.706Z,79.77
2023-09-05T03:55:54.915Z,79.97
2023-09-05T03:56:55.731Z,79.94
2023-09-05T03:57:54.960Z,79.93
2023-09-05T03:58:54.316Z,80
2023-09-05T03:59:54.072Z,80
2023-09-05T04:00:56.654Z,79.94
2023-09-05T04:01:55.456Z,79.99
2023-09-05T04:02:55.787Z,80.11
2023-09-05T04:03:55.543Z,80.17
2023-09-05T04:04:54.781Z,80.13
2023-09-05T04:05:56.295Z,80.17
2023-09-05T04:06:54.372Z,80.21
2023-09-05T04:07:54.565Z,80.15
2023-09-05T04:08:55.274Z,80.16
2023-09-05T04:09:54.602Z,80.22
2023-09-05T04:10:57.974Z,80.23
2023-09-05T04:11:54.538Z,80.30
2023-09-05T04:12:54.438Z,80.35
2023-09-05T04:13:54.857Z,80.33
2023-09-05T04:14:54.928Z,80.45
2023-09-05T04:15:55.566Z,80.47
2023-09-05T04:16:54.595Z,80.37
2023-09-05T04:17:54.965Z,80.37
2023-09-05T04:18:54.366Z,80.40
2023-09-05T04:19:54.139Z,80.43
2023-09-05T04:20:57.547Z,80.47
2023-09-05T04:21:54.706Z,80.61
2023-09-05T04:22:54.935Z,80.58
2023-09-05T04:23:54.759Z,80.54
2023-09-05T04:24:54.739Z,80.55
2023-09-05T04:25:56.838Z,80.64
2023-09-05T04:26:55.367Z,80.68
2023-09-05T04:27:54.962Z,80.61
2023-09-05T04:28:55.229Z,80.57
2023-09-05T04:29:54.856Z,80.58
2023-09-05T04:30:56.489Z,80.67
2023-09-05T04:31:55.108Z,80.78
2023-09-05T04:32:55.123Z,80.73
2023-09-05T04:33:54.348Z,80.77
2023-09-05T04:34:55.077Z,80.86
2023-09-05T04:35:54.641Z,80.87
2023-09-05T04:36:55.393Z,80.97
2023-09-05T04:37:54.290Z,80.92
2023-09-05T04:38:54.150Z,80.75
2023-09-05T04:39:54.576Z,80.75
2023-09-05T04:40:56.944Z,80.83
2023-09-05T04:41:55.038Z,80.85
2023-09-05T04:42:54.013Z,80.69
2023-09-05T04:43:54.194Z,80.72
2023-09-05T04:44:54.780Z,80.68
2023-09-05T04:45:56.028Z,80.77
2023-09-05T04:46:56.089Z,80.72
2023-09-05T04:47:54.713Z,80.68
2023-09-05T04:48:55.239Z,80.71
2023-09-05T04:49:54.385Z,80.70
2023-09-05T04:50:55.783Z,80.62
2023-09-05T04:51:55.804Z,80.68
2023-09-05T04:52:55.356Z,80.72
2023-09-05T04:53:54.162Z,80.80
2023-09-05T04:54:54.580Z,80.88
2023-09-05T04:55:55.299Z,80.90
2023-09-05T04:56:54.556Z,80.90
2023-09-05T04:57:54.912Z,80.94
2023-09-05T04:58:55.379Z,80.85
2023-09-05T04:59:55.081Z,80.84
2023-09-05T05:00:57.108Z,80.92
2023-09-05T05:01:54.846Z,80.92
2023-09-05T05:02:56.151Z,80.87
2023-09-05T05:03:55.611Z,80.91
2023-09-05T05:04:55.449Z,80.84
2023-09-05T05:05:54.921Z,80.80
2023-09-05T05:06:55.208Z,80.84
2023-09-05T05:07:54.900Z,80.73
2023-09-05T05:08:55.598Z,80.76
2023-09-05T05:09:55.444Z,80.76
2023-09-05T05:10:58.793Z,80.72
2023-09-05T05:11:56.818Z,80.75
2023-09-05T05:12:56.031Z,80.79
2023-09-05T05:13:55.221Z,80.87
2023-09-05T05:14:56.512Z,80.87
2023-09-05T05:15:55.760Z,80.84
2023-09-05T05:16:55.488Z,80.78
2023-09-05T05:17:55.485Z,80.78
2023-09-05T05:18:55.735Z,80.85
2023-09-05T05:19:55.169Z,80.79
2023-09-05T05:20:56.906Z,80.87
2023-09-05T05:21:55.513Z,80.95
2023-09-05T05:22:55.363Z,80.89
2023-09-05T05:23:55.331Z,80.87
2023-09-05T05:24:55.444Z,80.82
2023-09-05T05:25:55.267Z,80.92
2023-09-05T05:26:54.781Z,80.91
2023-09-05T05:27:55.269Z,80.90
2023-09-05T05:28:55.144Z,80.79
2023-09-05T05:29:54.355Z,80.71
2023-09-05T05:30:55.966Z,80.86
2023-09-05T05:31:55.288Z,80.82
2023-09-05T05:32:56.209Z,80.84
2023-09-05T05:33:55.213Z,81.01
2023-09-05T05:34:55.214Z,81.09
2023-09-05T05:35:55.516Z,81.10
2023-09-05T05:36:56.004Z,81.08
2023-09-05T05:37:54.922Z,81.05
2023-09-05T05:38:55.475Z,81.07
2023-09-05T05:39:55.413Z,81.03
2023-09-05T05:40:57.918Z,81.06
2023-09-05T05:41:55.475Z,81.08
2023-09-05T05:42:55.340Z,81.08
2023-09-05T05:43:55.286Z,81.14
2023-09-05T05:44:56.107Z,81.24
2023-09-05T05:45:55.300Z,81.39
2023-09-05T05:46:55.682Z,81.37
2023-09-05T05:47:55.471Z,81.37
2023-09-05T05:48:55.913Z,81.5
2023-09-05T05:49:54.626Z,81.57
2023-09-05T05:50:56.712Z,81.60
2023-09-05T05:51:55.182Z,81.48
2023-09-05T05:52:55.549Z,81.40
2023-09-05T05:53:55.188Z,81.40
2023-09-05T05:54:55.967Z,81.61
2023-09-05T05:55:56.202Z,81.70
2023-09-05T05:56:55.243Z,81.71
2023-09-05T05:57:55.177Z,81.85
2023-09-05T05:58:54.853Z,81.77
2023-09-05T05:59:55.444Z,81.63
2023-09-05T06:00:57.645Z,81.58
2023-09-05T06:01:56.077Z,81.62
2023-09-05T06:02:55.885Z,81.78
2023-09-05T06:03:57.934Z,81.93
2023-09-05T06:04:56.225Z,81.91
2023-09-05T06:05:55.727Z,81.80
2023-09-05T06:06:56.162Z,82.06
2023-09-05T06:07:54.948Z,82.32
2023-09-05T06:08:56.155Z,82.33
2023-09-05T06:09:54.897Z,82.24
2023-09-05T06:11:01.686Z,82.21
2023-09-05T06:11:55.456Z,82.31
2023-09-05T06:12:54.925Z,82.29
2023-09-05T06:13:56.574Z,82.32
2023-09-05T06:14:58.405Z,82.21
2023-09-05T06:15:58.018Z,82.27
2023-09-05T06:16:55.773Z,82.37
2023-09-05T06:17:55.872Z,82.41
2023-09-05T06:18:55.436Z,82.50
2023-09-05T06:19:55.286Z,82.42
2023-09-05T06:20:58.140Z,82.38
2023-09-05T06:21:55.406Z,82.17
2023-09-05T06:22:55.705Z,82.25
2023-09-05T06:23:54.836Z,82.13
2023-09-05T06:24:55.446Z,82.27
2023-09-05T06:25:55.935Z,82.16
2023-09-05T06:26:56.209Z,81.83
2023-09-05T06:27:55.212Z,81.59
2023-09-05T06:28:55.269Z,81.76
2023-09-05T06:29:54.802Z,81.73
2023-09-05T06:30:56.620Z,82
2023-09-05T06:31:55.439Z,81.40
2023-09-05T06:32:56.588Z,81.04
2023-09-05T06:33:55.343Z,80.62
2023-09-05T06:34:55.024Z,80.42
2023-09-05T06:35:55.262Z,80.75
2023-09-05T06:36:55.316Z,80.5
2023-09-05T06:37:55.679Z,80.62
2023-09-05T06:38:55.201Z,80.58
2023-09-05T06:39:55.177Z,80.61
2023-09-05T06:40:57.394Z,80.59
2023-09-05T06:41:56.609Z,80.32
2023-09-05T06:42:55.463Z,80.63
2023-09-05T06:43:55.508Z,80.52
2023-09-05T06:44:55.782Z,80.44
2023-09-05T06:45:56.197Z,80.54
2023-09-05T06:46:54.670Z,80.55
2023-09-05T06:47:57.230Z,80.26
2023-09-05T06:48:55.384Z,80.61
2023-09-05T06:49:55.215Z,80.61
2023-09-05T06:50:55.512Z,80.87
2023-09-05T06:51:55.033Z,80.88
2023-09-05T06:52:55.217Z,80.91
2023-09-05T06:53:54.901Z,80.69
2023-09-05T06:54:54.932Z,80.12
2023-09-05T06:55:56.841Z,79.69
2023-09-05T06:56:56.148Z,79.12
2023-09-05T06:57:55.322Z,78.82
2023-09-05T06:58:55.097Z,78.75
2023-09-05T06:59:54.797Z,78.60
2023-09-05T07:00:57.503Z,78.47
2023-09-05T07:01:55.260Z,78.02
2023-09-05T07:02:56.079Z,77.82
2023-09-05T07:03:54.998Z,77.73
2023-09-05T07:04:55.414Z,77.55
2023-09-05T07:06:05.885Z,77.19
2023-09-05T07:06:56.470Z,76.79
2023-09-05T07:07:55.773Z,76.76
2023-09-05T07:08:56.409Z,76.79
2023-09-05T07:09:54.881Z,77.05
2023-09-05T07:10:59.616Z,77.30
2023-09-05T07:11:55.814Z,77.26
2023-09-05T07:12:55.647Z,77.13
2023-09-05T07:13:55.428Z,76.96
2023-09-05T07:14:56.934Z,76.87
2023-09-05T07:15:56.316Z,76.52
2023-09-05T07:16:55.286Z,76.01
2023-09-05T07:17:55.641Z,76.02
2023-09-05T07:18:55.898Z,75.87
2023-09-05T07:19:55.872Z,75.67
2023-09-05T07:20:58.438Z,75.44
2023-09-05T07:21:55.148Z,75.51
2023-09-05T07:22:55.714Z,75.58
2023-09-05T07:23:55.481Z,75.50
2023-09-05T07:24:55.869Z,75.37
2023-09-05T07:25:56.688Z,75.04
2023-09-05T07:26:56.038Z,74.89
2023-09-05T07:27:55.259Z,74.75
2023-09-05T07:28:55.382Z,74.47
2023-09-05T07:29:55.377Z,74.16
2023-09-05T07:30:56.594Z,73.64
2023-09-05T07:31:56.386Z,73.33
2023-09-05T07:32:57.116Z,73.49
2023-09-05T07:33:55.853Z,73.26
2023-09-05T07:34:55.530Z,72.98
2023-09-05T07:35:56.096Z,73.05
2023-09-05T07:36:54.754Z,72.88
2023-09-05T07:37:56.397Z,72.58
2023-09-05T07:38:56.774Z,72.50
2023-09-05T07:39:56.820Z,72.31
2023-09-05T07:40:59.228Z,72.11
2023-09-05T07:41:55.912Z,72.05
2023-09-05T07:42:56.506Z,72.05
2023-09-05T07:43:55.922Z,71.83
2023-09-05T07:44:55.934Z,71.44
2023-09-05T07:45:56.804Z,71.26
2023-09-05T07:46:56.263Z,71.32
2023-09-05T07:47:55.349Z,71.30
2023-09-05T07:48:55.821Z,71.29
2023-09-05T07:49:55.845Z,71.44
2023-09-05T07:50:56.919Z,71.84
2023-09-05T07:51:55.751Z,71.77
2023-09-05T07:52:56.119Z,71.73
2023-09-05T07:53:54.676Z,71.55
2023-09-05T07:54:56.099Z,70.96
2023-09-05T07:55:55.795Z,71.01
2023-09-05T07:56:55.963Z,71.03
2023-09-05T07:57:56.586Z,70.92
2023-09-05T07:58:56.021Z,71.08
2023-09-05T07:59:55.007Z,71.21
2023-09-05T08:00:56.483Z,70.81
2023-09-05T08:01:55.561Z,70.33
2023-09-05T08:02:56.392Z,70.32
2023-09-05T08:03:55.743Z,70.12
2023-09-05T08:04:56.366Z,69.95
2023-09-05T08:05:59.241Z,69.64
2023-09-05T08:06:55.464Z,69.80
2023-09-05T08:07:55.180Z,70.04
2023-09-05T08:08:55.822Z,69.61
2023-09-05T08:09:55.186Z,69.44
2023-09-05T08:11:00.744Z,69.57
2023-09-05T08:11:55.675Z,69.39
2023-09-05T08:12:56.061Z,69.44
2023-09-05T08:13:57.240Z,69.75
2023-09-05T08:14:55.442Z,69.55
2023-09-05T08:15:56.330Z,69.48
2023-09-05T08:16:56.376Z,69.30
2023-09-05T08:17:56.553Z,69.34
2023-09-05T08:18:55.909Z,69.10
2023-09-05T08:19:55.961Z,69.03
2023-09-05T08:21:01.155Z,69.13
2023-09-05T08:21:55.861Z,69.11
2023-09-05T08:22:56.407Z,69.15
2023-09-05T08:23:55.628Z,69.58
2023-09-05T08:24:56.456Z,69.51
2023-09-05T08:25:56.491Z,68.65
2023-09-05T08:26:58.262Z,68.26
2023-09-05T08:27:56.014Z,67.81
2023-09-05T08:28:57.357Z,68.08
2023-09-05T08:29:56.136Z,68.36
2023-09-05T08:31:04.961Z,68.29
2023-09-05T08:31:57.526Z,67.91
2023-09-05T08:32:57.069Z,67.79
2023-09-05T08:33:55.932Z,67.69
2023-09-05T08:34:55.558Z,67.63
2023-09-05T08:35:56.562Z,67.46
2023-09-05T08:36:55.852Z,67.47
2023-09-05T08:37:56.194Z,67.40
2023-09-05T08:38:55.762Z,67.45
2023-09-05T08:39:55.821Z,67.36
2023-09-05T08:41:00.833Z,67.22
2023-09-05T08:41:55.772Z,67.22
2023-09-05T08:42:55.906Z,66.98
2023-09-05T08:43:57.803Z,66.68
2023-09-05T08:44:54.449Z,66.84
2023-09-05T08:45:56.180Z,66.70
2023-09-05T08:46:55.528Z,66.73
2023-09-05T08:47:56.468Z,66.76
2023-09-05T08:48:59.140Z,66.91
2023-09-05T08:49:55.418Z,66.93
2023-09-05T08:50:57.995Z,66.42
2023-09-05T08:51:55.574Z,66.02
2023-09-05T08:52:55.507Z,66.04
2023-09-05T08:53:55.367Z,66.04
2023-09-05T08:54:55.571Z,65.91
2023-09-05T08:55:55.644Z,66.00
2023-09-05T08:56:56.470Z,66.21
2023-09-05T08:57:55.304Z,66.16
2023-09-05T08:58:55.564Z,65.39
2023-09-05T08:59:56.064Z,64.43
2023-09-05T09:00:57.407Z,64.48
2023-09-05T09:01:56.984Z,64.65
2023-09-05T09:02:56.650Z,64.18
2023-09-05T09:03:55.779Z,63.15
2023-09-05T09:04:56.320Z,62.83
2023-09-05T09:05:56.181Z,62.70
2023-09-05T09:06:56.065Z,61.93
2023-09-05T09:07:55.214Z,62.20
2023-09-05T09:08:55.949Z,62.29
2023-09-05T09:09:55.854Z,62.17
2023-09-05T09:11:00.171Z,62.56
2023-09-05T09:11:55.411Z,62.63
2023-09-05T09:12:56.130Z,62.36
2023-09-05T09:13:55.809Z,61.47
2023-09-05T09:14:56.258Z,61.38
2023-09-05T09:15:55.623Z,60.84
2023-09-05T09:16:55.810Z,60.86
2023-09-05T09:17:55.892Z,60.83
2023-09-05T09:18:56.461Z,60.43
2023-09-05T09:19:55.409Z,60.81
2023-09-05T09:20:57.476Z,61.31
2023-09-05T09:21:55.331Z,60.09
2023-09-05T09:22:55.205Z,59.97
2023-09-05T09:23:55.122Z,60.47
2023-09-05T09:24:54.909Z,61.14
2023-09-05T09:25:56.270Z,61.13
2023-09-05T09:26:55.738Z,60.43
2023-09-05T09:27:55.756Z,59.84
2023-09-05T09:28:56.655Z,59.02
2023-09-05T09:29:55.418Z,58.31
2023-09-05T09:30:58.868Z,59.5
2023-09-05T09:31:56.900Z,60.00
2023-09-05T09:32:58.345Z,59.25
2023-09-05T09:33:56.275Z,58.59
2023-09-05T09:34:55.925Z,58.06
2023-09-05T09:35:56.078Z,57.64
2023-09-05T09:36:55.052Z,58.45
2023-09-05T09:37:55.526Z,58.23
2023-09-05T09:38:55.479Z,58.45
2023-09-05T09:39:55.595Z,59.62
2023-09-05T09:40:57.634Z,59.94
2023-09-05T09:41:57.549Z,58.97
2023-09-05T09:42:56.056Z,57.86
2023-09-05T09:43:54.918Z,57.87
2023-09-05T09:44:56.587Z,57.34
2023-09-05T09:45:56.618Z,57.17
2023-09-05T09:46:56.038Z,56.86
2023-09-05T09:47:55.216Z,56.88
2023-09-05T09:48:56.639Z,57.43
2023-09-05T09:49:56.135Z,57.79
2023-09-05T09:50:55.717Z,57.71
2023-09-05T09:51:55.880Z,57.47
2023-09-05T09:52:56.097Z,57.08
2023-09-05T09:53:55.074Z,56.68
2023-09-05T09:54:55.364Z,57.43
2023-09-05T09:55:54.774Z,56.59
2023-09-05T09:56:56.072Z,56.43
2023-09-05T09:58:10.479Z,55.93
2023-09-05T09:58:58.731Z,55.86
2023-09-05T09:59:55.390Z,55.90
2023-09-05T10:00:56.723Z,55.93
2023-09-05T10:01:55.137Z,55.68
2023-09-05T10:02:56.424Z,55.49
2023-09-05T10:03:55.459Z,55.72
2023-09-05T10:04:55.340Z,55.68
2023-09-05T10:05:55.451Z,55.64
2023-09-05T10:06:55.160Z,55.81
2023-09-05T10:07:55.281Z,56.03
2023-09-05T10:08:54.897Z,56.75
2023-09-05T10:09:56.205Z,56.43
2023-09-05T10:10:58.465Z,55.91
2023-09-05T10:11:56.476Z,55.99
2023-09-05T10:12:55.549Z,56.42
2023-09-05T10:13:55.222Z,56.43
2023-09-05T10:14:55.650Z,56.97
2023-09-05T10:15:56.364Z,56.38
2023-09-05T10:16:55.897Z,56.29
2023-09-05T10:17:55.867Z,56.81
2023-09-05T10:18:55.854Z,57.72
2023-09-05T10:19:55.164Z,57.88
2023-09-05T10:20:56.974Z,56.76
2023-09-05T10:21:54.824Z,56.97
2023-09-05T10:22:55.480Z,56.58
2023-09-05T10:23:55.321Z,55.49
2023-09-05T10:24:54.953Z,55.38
2023-09-05T10:25:56.642Z,55.40
2023-09-05T10:26:56.203Z,55.86
2023-09-05T10:27:55.336Z,55.54
2023-09-05T10:28:55.413Z,55.18
2023-09-05T10:29:55.517Z,55.04
2023-09-05T10:30:57.309Z,55.00
2023-09-05T10:31:54.788Z,55.09
2023-09-05T10:32:57.921Z,54.79
2023-09-05T10:33:57.046Z,54.38
2023-09-05T10:34:55.740Z,54.06
2023-09-05T10:35:56.354Z,54.02
2023-09-05T10:36:55.431Z,54.24
2023-09-05T10:37:55.120Z,54.15
2023-09-05T10:38:55.046Z,53.69
2023-09-05T10:39:54.813Z,53.99
2023-09-05T10:40:58.027Z,54.27
2023-09-05T10:41:55.427Z,54.15
2023-09-05T10:42:54.963Z,53.41
2023-09-05T10:43:55.739Z,53.61
2023-09-05T10:44:55.948Z,53.74
2023-09-05T10:45:56.664Z,54.13
2023-09-05T10:46:56.057Z,53.61
2023-09-05T10:47:55.398Z,53.33
2023-09-05T10:48:55.707Z,52.95
2023-09-05T10:49:55.572Z,53.47
2023-09-05T10:50:57.719Z,53.41
2023-09-05T10:51:55.359Z,52.20
2023-09-05T10:52:55.638Z,52.04
2023-09-05T10:53:55.419Z,52.5
2023-09-05T10:54:55.634Z,52.68
2023-09-05T10:55:56.502Z,52.50
2023-09-05T10:56:55.997Z,52.43
2023-09-05T10:57:55.610Z,52.22
2023-09-05T10:58:56.579Z,52.10
2023-09-05T10:59:55.306Z,52.49
2023-09-05T11:00:57.316Z,53.93
2023-09-05T11:01:55.839Z,53.09
2023-09-05T11:02:56.576Z,52.20
2023-09-05T11:03:55.875Z,53.29
2023-09-05T11:04:56.192Z,52.75
2023-09-05T11:05:55.016Z,52.74
2023-09-05T11:06:55.269Z,52.27
2023-09-05T11:07:55.467Z,51.93
2023-09-05T11:08:56.699Z,52.08
2023-09-05T11:09:55.744Z,51.59
2023-09-05T11:10:59.007Z,51.38
2023-09-05T11:11:55.396Z,51.61
2023-09-05T11:12:54.995Z,51.45
2023-09-05T11:13:55.249Z,51.41
2023-09-05T11:14:56.451Z,51.09
2023-09-05T11:15:56.161Z,51.24
2023-09-05T11:16:55.495Z,51.24
2023-09-05T11:17:55.683Z,51.22
2023-09-05T11:18:56.194Z,51.25
2023-09-05T11:19:55.232Z,50.87
2023-09-05T11:20:57.025Z,51.11
2023-09-05T11:21:55.167Z,51.90
2023-09-05T11:22:55.340Z,52.36
2023-09-05T11:23:55.494Z,51.93
2023-09-05T11:24:55.692Z,51.11
2023-09-05T11:25:55.804Z,51.33
2023-09-05T11:26:56.951Z,50.65
2023-09-05T11:27:55.693Z,50.36
2023-09-05T11:28:55.812Z,50.61
2023-09-05T11:29:55.660Z,51.05
2023-09-05T11:30:56.649Z,51.09
2023-09-05T11:31:55.871Z,51.03
2023-09-05T11:32:56.233Z,50.83
2023-09-05T11:33:55.285Z,50.25
2023-09-05T11:34:55.695Z,49.97
2023-09-05T11:35:56.422Z,50.36
2023-09-05T11:36:55.694Z,49.97
2023-09-05T11:37:55.671Z,50.23
2023-09-05T11:38:55.517Z,50.5
2023-09-05T11:39:55.448Z,50.27
2023-09-05T11:40:58.026Z,50.54
2023-09-05T11:41:54.954Z,49.84
2023-09-05T11:42:56.242Z,50.38
2023-09-05T11:43:55.587Z,50.36
2023-09-05T11:44:55.875Z,50
2023-09-05T11:45:56.084Z,50.18
2023-09-05T11:46:55.545Z,50.63
2023-09-05T11:47:55.575Z,50.54
2023-09-05T11:48:55.588Z,49.52
2023-09-05T11:49:55.365Z,49.34
2023-09-05T11:50:56.978Z,50.52
2023-09-05T11:51:55.170Z,49.68
2023-09-05T11:52:55.337Z,49.11
2023-09-05T11:53:54.826Z,49.25
2023-09-05T11:54:55.586Z,49.18
2023-09-05T11:55:56.071Z,49.26
2023-09-05T11:56:55.458Z,49.63
2023-09-05T11:57:55.392Z,49.93
2023-09-05T11:58:55.507Z,49.84
2023-09-05T11:59:55.779Z,49.72
2023-09-05T12:00:57.944Z,49.49
2023-09-05T12:01:55.339Z,49.44
2023-09-05T12:02:55.870Z,49.77
2023-09-05T12:03:55.877Z,49.04
2023-09-05T12:04:55.706Z,49.06
2023-09-05T12:05:56.035Z,49.03
2023-09-05T12:06:54.849Z,49.31
2023-09-05T12:07:55.644Z,49.02
2023-09-05T12:08:59.401Z,49.32
2023-09-05T12:09:55.299Z,48.72
2023-09-05T12:10:58.955Z,48.01
2023-09-05T12:11:55.633Z,48.22
2023-09-05T12:12:55.874Z,48.43
2023-09-05T12:13:56.083Z,48.29
2023-09-05T12:14:55.682Z,47.93
2023-09-05T12:15:55.814Z,48.40
2023-09-05T12:16:55.945Z,49.32
2023-09-05T12:17:56.121Z,49.30
2023-09-05T12:18:54.610Z,49.11
2023-09-05T12:19:54.977Z,48.38
2023-09-05T12:20:56.801Z,47.65
2023-09-05T12:21:55.484Z,47.64
2023-09-05T12:22:55.193Z,47.86
2023-09-05T12:23:54.906Z,47.75
2023-09-05T12:25:08.748Z,48.04
2023-09-05T12:26:18.074Z,47.81
2023-09-05T12:27:08.794Z,47.47
2023-09-05T12:27:58.581Z,47.47
2023-09-05T12:28:55.596Z,47.93
2023-09-05T12:29:55.877Z,48.29
2023-09-05T12:30:56.487Z,48.60
2023-09-05T12:31:55.858Z,48.81
2023-09-05T12:32:57.277Z,49.08
2023-09-05T12:33:56.096Z,48.95
2023-09-05T12:34:54.987Z,48.67
2023-09-05T12:35:55.205Z,48.62
2023-09-05T12:36:55.106Z,48.29
2023-09-05T12:37:54.962Z,48.27
2023-09-05T12:38:55.774Z,47.93
2023-09-05T12:39:55.740Z,48.02
2023-09-05T12:40:57.529Z,48.40
2023-09-05T12:41:55.762Z,48.27
2023-09-05T12:42:55.778Z,48.31
2023-09-05T12:43:55.546Z,48.45
2023-09-05T12:44:55.497Z,48.54
2023-09-05T12:45:57.170Z,48.45
2023-09-05T12:46:55.216Z,48.27
2023-09-05T12:47:55.334Z,47.92
2023-09-05T12:48:54.901Z,47.91
2023-09-05T12:50:09.989Z,48.12
2023-09-05T12:50:56.373Z,48.19
2023-09-05T12:51:55.718Z,48.47
2023-09-05T12:52:54.895Z,48.68
2023-09-05T12:53:59.773Z,48.16